Time;durP1;ratioP1;P1;durP2;ratioP2;P2;SDS_P1;SDS_P2;PMS_P1;PMS_P2;Temp;Humidity;BMP_temperature;BMP_pressure;BME280_temperature;BME280_humidity;BME280_pressure;Samples;Min_cycle;Max_cycle;Signal;HPM_P1;HPM_P2
2021/12/04 00:01:10;;;;;;;3.67;2.67;;;;;;;;;;5055070;28;20205;-77
2021/12/04 00:03:37;;;;;;;5.73;3.17;;;;;;;;;;5055704;28;20691;-78
2021/12/04 00:06:09;;;;;;;3.50;2.70;;;;;;;;;;5055788;28;20169;-78
2021/12/04 00:08:36;;;;;;;5.13;2.80;;;;;;;;;;5055914;28;20383;-77
2021/12/04 00:11:03;;;;;;;4.43;2.63;;;;;;;;;;5055187;28;20195;-78
2021/12/04 00:13:29;;;;;;;4.40;2.70;;;;;;;;;;5055835;28;20204;-77
2021/12/04 00:15:55;;;;;;;3.83;2.77;;;;;;;;;;5055737;28;20177;-78
2021/12/04 00:18:22;;;;;;;4.23;3.00;;;;;;;;;;5055477;28;20172;-77
2021/12/04 00:20:48;;;;;;;4.07;2.80;;;;;;;;;;5071895;28;20204;-78
2021/12/04 00:23:14;;;;;;;6.00;2.70;;;;;;;;;;5072059;28;20212;-78
2021/12/04 00:25:40;;;;;;;3.93;2.70;;;;;;;;;;5071963;28;20190;-78
2021/12/04 00:28:06;;;;;;;4.00;2.90;;;;;;;;;;5055287;28;20645;-78
2021/12/04 00:30:32;;;;;;;4.23;2.67;;;;;;;;;;5071794;28;20177;-78
2021/12/04 00:33:22;;;;;;;4.60;3.10;;;;;;;;;;5071872;28;20208;-78
2021/12/04 00:35:48;;;;;;;2.83;2.50;;;;;;;;;;5085471;28;20306;-78
2021/12/04 00:49:13;;;;;;;4.77;3.00;;;;;;;;;;5038773;28;20196;-78
2021/12/04 00:51:53;;;;;;;5.53;3.10;;;;;;;;;;5019691;28;20192;-78
2021/12/04 00:54:20;;;;;;;4.80;2.90;;;;;;;;;;5035158;28;20182;-78
2021/12/04 00:56:46;;;;;;;4.30;3.07;;;;;;;;;;5019061;28;20201;-78
2021/12/04 00:59:12;;;;;;;4.27;3.20;;;;;;;;;;5035617;28;20227;-79
2021/12/04 01:01:39;;;;;;;4.50;3.00;;;;;;;;;;5018869;28;20210;-79
2021/12/04 01:04:08;;;;;;;4.17;3.23;;;;;;;;;;5035348;28;20169;-78
2021/12/04 01:06:34;;;;;;;3.40;2.97;;;;;;;;;;5019080;28;20206;-78
2021/12/04 01:09:00;;;;;;;3.93;3.00;;;;;;;;;;5018904;28;20273;-79
2021/12/04 01:11:26;;;;;;;5.97;3.20;;;;;;;;;;5018756;28;20280;-79
2021/12/04 01:13:52;;;;;;;3.90;3.23;;;;;;;;;;5022035;28;20181;-79
2021/12/04 01:16:18;;;;;;;4.90;3.00;;;;;;;;;;5022954;28;20181;-79
2021/12/04 01:18:45;;;;;;;4.30;2.60;;;;;;;;;;5057243;28;20256;-79
2021/12/04 01:21:11;;;;;;;4.37;2.90;;;;;;;;;;5022416;28;20570;-78
2021/12/04 01:23:37;;;;;;;5.43;3.10;;;;;;;;;;5056696;28;20169;-79
2021/12/04 01:26:03;;;;;;;4.47;2.83;;;;;;;;;;5039336;28;20267;-79
2021/12/04 01:28:29;;;;;;;3.07;2.67;;;;;;;;;;5022308;28;20695;-78
2021/12/04 01:30:55;;;;;;;4.10;2.97;;;;;;;;;;5022731;28;20185;-78
2021/12/04 01:33:21;;;;;;;5.63;3.03;;;;;;;;;;5057228;28;20223;-78
2021/12/04 01:35:47;;;;;;;4.10;3.10;;;;;;;;;;5038825;28;20550;-78
2021/12/04 01:38:13;;;;;;;4.07;3.17;;;;;;;;;;5022731;28;20231;-79
2021/12/04 01:40:39;;;;;;;5.23;3.20;;;;;;;;;;5038512;28;20212;-78
2021/12/04 01:43:07;;;;;;;3.20;2.90;;;;;;;;;;5022498;28;20174;-78
2021/12/04 01:45:33;;;;;;;4.93;3.20;;;;;;;;;;5038349;28;20180;-79
2021/12/04 01:48:00;;;;;;;4.13;3.30;;;;;;;;;;5038732;28;20201;-78
2021/12/04 01:50:27;;;;;;;3.70;2.90;;;;;;;;;;5038558;28;20192;-78
2021/12/04 01:52:55;;;;;;;4.57;2.90;;;;;;;;;;5038822;28;20173;-78
2021/12/04 01:55:24;;;;;;;5.40;3.30;;;;;;;;;;5022236;28;20196;-79
2021/12/04 01:57:50;;;;;;;3.90;3.10;;;;;;;;;;5022245;28;20208;-78
2021/12/04 02:00:16;;;;;;;3.10;2.80;;;;;;;;;;5038888;28;20212;-78
2021/12/04 02:02:42;;;;;;;4.77;3.23;;;;;;;;;;5021763;28;20182;-78
2021/12/04 02:05:08;;;;;;;5.70;3.07;;;;;;;;;;5038385;28;20199;-79
2021/12/04 02:07:34;;;;;;;5.10;3.57;;;;;;;;;;5038071;28;20204;-78
2021/12/04 02:10:00;;;;;;;5.37;3.20;;;;;;;;;;5021724;28;20182;-79
2021/12/04 02:12:26;;;;;;;4.27;3.47;;;;;;;;;;5021577;28;20208;-78
2021/12/04 02:14:52;;;;;;;4.17;2.90;;;;;;;;;;5021524;28;20181;-78
2021/12/04 02:17:18;;;;;;;3.10;2.77;;;;;;;;;;5021719;28;20262;-79
2021/12/04 02:19:47;;;;;;;3.20;2.73;;;;;;;;;;5021702;28;20234;-78
2021/12/04 02:22:12;;;;;;;5.20;2.90;;;;;;;;;;5021243;28;20181;-79
2021/12/04 02:24:39;;;;;;;4.13;2.80;;;;;;;;;;5021044;28;20275;-78
2021/12/04 02:27:05;;;;;;;3.40;2.83;;;;;;;;;;5021676;28;20200;-78
2021/12/04 02:29:31;;;;;;;2.90;2.57;;;;;;;;;;5038094;28;20180;-78
2021/12/04 02:31:58;;;;;;;4.83;3.27;;;;;;;;;;5037751;28;20185;-78
2021/12/04 02:34:28;;;;;;;3.93;3.20;;;;;;;;;;5037864;28;20216;-79
2021/12/04 02:36:55;;;;;;;3.40;2.77;;;;;;;;;;5038052;28;20221;-78
2021/12/04 02:39:34;;;;;;;3.20;2.90;;;;;;;;;;5038129;28;20182;-78
2021/12/04 02:42:01;;;;;;;4.17;2.77;;;;;;;;;;5037368;28;20221;-79
2021/12/04 02:44:33;;;;;;;3.83;3.07;;;;;;;;;;5038018;28;20625;-78
2021/12/04 02:46:59;;;;;;;3.60;2.70;;;;;;;;;;5055342;28;20193;-78
2021/12/04 02:49:25;;;;;;;3.73;3.20;;;;;;;;;;5021095;28;20553;-78
2021/12/04 02:51:51;;;;;;;3.40;2.80;;;;;;;;;;5021157;28;20654;-78
2021/12/04 02:54:17;;;;;;;4.20;2.80;;;;;;;;;;5021401;28;20191;-78
2021/12/04 02:56:44;;;;;;;4.40;2.77;;;;;;;;;;5021033;28;20205;-78
2021/12/04 02:59:10;;;;;;;3.40;2.37;;;;;;;;;;5037375;28;20241;-79
2021/12/04 03:01:38;;;;;;;3.20;2.73;;;;;;;;;;5020687;28;20200;-79
2021/12/04 03:04:07;;;;;;;3.03;2.20;;;;;;;;;;5037395;28;20213;-78
2021/12/04 03:06:37;;;;;;;2.63;2.40;;;;;;;;;;5037408;28;20174;-79
2021/12/04 03:09:04;;;;;;;2.80;2.50;;;;;;;;;;5037454;28;20178;-79
2021/12/04 03:11:30;;;;;;;2.43;2.00;;;;;;;;;;5036808;28;20647;-78
2021/12/04 03:13:57;;;;;;;2.80;2.13;;;;;;;;;;5037023;28;20185;-78
2021/12/04 03:16:24;;;;;;;2.73;2.43;;;;;;;;;;5036950;28;20701;-79
2021/12/04 03:18:50;;;;;;;2.27;2.07;;;;;;;;;;5020413;28;20534;-78
2021/12/04 03:21:16;;;;;;;2.63;2.33;;;;;;;;;;5020694;28;20553;-78
2021/12/04 03:23:52;;;;;;;3.03;1.80;;;;;;;;;;5037019;28;20595;-78
2021/12/04 03:26:19;;;;;;;2.97;2.43;;;;;;;;;;5036755;28;20531;-78
2021/12/04 03:28:45;;;;;;;2.20;2.00;;;;;;;;;;5020292;28;20178;-78
2021/12/04 03:31:16;;;;;;;2.73;2.10;;;;;;;;;;5020044;28;20185;-78
2021/12/04 03:41:56;;;;;;;1.97;1.77;;;;;;;;;;5039019;28;20223;-79
2021/12/04 03:44:22;;;;;;;2.17;1.87;;;;;;;;;;5036364;28;20177;-79
2021/12/04 03:46:48;;;;;;;2.50;2.20;;;;;;;;;;5019831;28;20204;-78
2021/12/04 03:49:14;;;;;;;2.10;1.73;;;;;;;;;;5053934;28;20304;-79
2021/12/04 03:51:40;;;;;;;2.10;1.90;;;;;;;;;;5035707;28;20213;-78
2021/12/04 03:54:06;;;;;;;1.93;1.73;;;;;;;;;;5019798;28;20185;-78
2021/12/04 03:56:33;;;;;;;3.13;2.00;;;;;;;;;;5036118;28;20599;-78
2021/12/04 03:58:59;;;;;;;1.90;1.70;;;;;;;;;;5036527;28;20185;-78
2021/12/04 04:01:25;;;;;;;2.50;1.87;;;;;;;;;;5035620;28;20209;-79
2021/12/04 04:03:51;;;;;;;2.30;1.73;;;;;;;;;;5019510;28;20182;-79
2021/12/04 04:06:17;;;;;;;2.23;1.67;;;;;;;;;;5035964;28;20178;-78
2021/12/04 04:08:43;;;;;;;1.80;1.70;;;;;;;;;;5019482;28;20597;-78
2021/12/04 04:11:09;;;;;;;2.10;1.90;;;;;;;;;;5019318;28;20182;-78
2021/12/04 04:13:40;;;;;;;1.90;1.70;;;;;;;;;;5035809;28;20245;-78
2021/12/04 04:16:06;;;;;;;1.83;1.70;;;;;;;;;;5020079;28;20213;-79
2021/12/04 04:18:32;;;;;;;2.00;1.80;;;;;;;;;;5019338;28;20233;-78
2021/12/04 04:20:58;;;;;;;2.17;1.90;;;;;;;;;;5019073;28;20198;-78
2021/12/04 04:23:25;;;;;;;2.03;1.80;;;;;;;;;;5019589;28;20178;-78
2021/12/04 04:25:51;;;;;;;2.03;1.70;;;;;;;;;;5035794;28;20177;-79
2021/12/04 04:28:17;;;;;;;2.17;1.90;;;;;;;;;;5035405;28;20675;-79
2021/12/04 04:30:43;;;;;;;3.27;1.87;;;;;;;;;;5018666;28;20173;-79
2021/12/04 04:33:12;;;;;;;2.63;1.97;;;;;;;;;;5019275;28;20188;-79
2021/12/04 04:35:38;;;;;;;2.43;1.80;;;;;;;;;;5035472;28;20258;-78
2021/12/04 05:00:02;;;;;;;2.00;1.73;;;;;;;;;;5053397;28;20216;-78
2021/12/04 05:10:13;;;;;;;1.97;1.77;;;;;;;;;;5034990;28;20178;-78
2021/12/04 05:11:06;;;;;;;2.23;1.83;;;;;;;;;;5053783;28;20269;-79
2021/12/04 05:13:32;;;;;;;3.00;1.73;;;;;;;;;;5036411;28;20173;-79
2021/12/04 05:16:00;;;;;;;1.53;1.43;;;;;;;;;;5035943;28;20174;-78
2021/12/04 05:21:03;;;;;;;1.67;1.57;;;;;;;;;;5053006;28;20204;-79
2021/12/04 05:23:30;;;;;;;1.80;1.70;;;;;;;;;;5020336;28;20178;-79
2021/12/04 05:25:56;;;;;;;1.80;1.63;;;;;;;;;;5035348;28;20178;-79
2021/12/04 05:28:22;;;;;;;1.70;1.60;;;;;;;;;;5018515;28;20201;-79
2021/12/04 05:30:49;;;;;;;1.93;1.73;;;;;;;;;;5019182;28;20193;-78
2021/12/04 05:33:15;;;;;;;2.37;1.50;;;;;;;;;;5035375;28;20170;-78
2021/12/04 05:35:41;;;;;;;1.37;1.27;;;;;;;;;;5035243;28;20674;-79
2021/12/04 05:38:07;;;;;;;1.93;1.40;;;;;;;;;;5035409;28;20220;-79
2021/12/04 05:40:33;;;;;;;1.60;1.50;;;;;;;;;;5019070;28;20209;-79
2021/12/04 05:43:02;;;;;;;1.70;1.60;;;;;;;;;;5019018;28;20182;-79
2021/12/04 05:45:28;;;;;;;1.50;1.40;;;;;;;;;;5019311;28;20184;-79
2021/12/04 05:48:06;;;;;;;2.30;1.50;;;;;;;;;;5035612;28;20332;-79
2021/12/04 05:58:19;;;;;;;1.60;1.30;;;;;;;;;;5037346;28;20205;-79
2021/12/04 06:00:45;;;;;;;1.43;1.30;;;;;;;;;;5021415;28;20197;-79
2021/12/04 06:03:12;;;;;;;1.40;1.30;;;;;;;;;;5038943;28;20594;-79
2021/12/04 06:05:38;;;;;;;1.47;1.37;;;;;;;;;;5022680;28;20189;-79
2021/12/04 06:08:04;;;;;;;1.50;1.40;;;;;;;;;;5039006;28;20196;-78
2021/12/04 06:10:30;;;;;;;1.30;1.20;;;;;;;;;;5038588;28;20209;-79
2021/12/04 06:12:56;;;;;;;1.60;1.50;;;;;;;;;;5038553;28;20189;-79
2021/12/04 06:15:22;;;;;;;1.60;1.50;;;;;;;;;;5021930;28;20188;-78
2021/12/04 06:17:51;;;;;;;1.30;1.20;;;;;;;;;;5038491;28;20197;-79
2021/12/04 06:23:02;;;;;;;1.60;1.40;;;;;;;;;;5056809;28;20247;-79
2021/12/04 06:25:28;;;;;;;2.10;1.40;;;;;;;;;;5022337;28;20181;-79
2021/12/04 06:27:55;;;;;;;1.30;1.20;;;;;;;;;;5037508;28;20200;-79
2021/12/04 06:30:21;;;;;;;1.50;1.20;;;;;;;;;;5056641;28;20196;-79
2021/12/04 06:32:49;;;;;;;1.37;1.20;;;;;;;;;;5021886;28;20212;-78
2021/12/04 06:35:17;;;;;;;1.43;1.33;;;;;;;;;;5038112;28;20176;-79
2021/12/04 06:37:43;;;;;;;1.47;1.37;;;;;;;;;;5002355;23;20258;-82
2021/12/04 06:40:13;;;;;;;1.23;1.13;;;;;;;;;;4921315;29;20189;-81
2021/12/04 06:42:40;;;;;;;1.50;1.40;;;;;;;;;;4921596;28;20587;-81
2021/12/04 06:45:06;;;;;;;1.50;1.40;;;;;;;;;;4921288;28;20188;-81
2021/12/04 06:47:33;;;;;;;1.60;1.50;;;;;;;;;;4921484;28;20228;-79
2021/12/04 06:50:07;;;;;;;1.63;1.53;;;;;;;;;;4921047;28;20181;-81
2021/12/04 06:52:33;;;;;;;1.50;1.40;;;;;;;;;;4936520;29;20264;-79
2021/12/04 06:55:01;;;;;;;1.30;1.17;;;;;;;;;;4936762;29;20180;-80
2021/12/04 06:57:29;;;;;;;2.77;1.30;;;;;;;;;;4920825;28;20200;-82
2021/12/04 06:59:56;;;;;;;2.40;1.30;;;;;;;;;;4936061;29;20176;-82
2021/12/04 07:02:22;;;;;;;1.30;1.20;;;;;;;;;;4920325;28;20185;-81
2021/12/04 07:04:49;;;;;;;1.30;1.20;;;;;;;;;;4920802;29;20187;-81
2021/12/04 07:07:15;;;;;;;1.47;1.30;;;;;;;;;;4936120;29;20777;-81
2021/12/04 07:09:41;;;;;;;1.57;1.30;;;;;;;;;;4920430;28;20238;-83
2021/12/04 07:12:08;;;;;;;1.40;1.30;;;;;;;;;;4935771;29;20181;-81
2021/12/04 07:14:34;;;;;;;1.23;1.13;;;;;;;;;;4936322;29;20656;-78
2021/12/04 07:17:02;;;;;;;1.50;1.37;;;;;;;;;;4920821;29;20239;-78
2021/12/04 07:19:29;;;;;;;1.20;1.10;;;;;;;;;;4920884;28;20181;-78
2021/12/04 07:21:55;;;;;;;3.17;2.00;;;;;;;;;;4935915;29;20587;-79
2021/12/04 07:24:21;;;;;;;1.40;1.20;;;;;;;;;;4920727;29;20653;-79
2021/12/04 07:26:47;;;;;;;1.13;1.03;;;;;;;;;;4936475;29;20641;-78
2021/12/04 07:29:13;;;;;;;1.30;1.20;;;;;;;;;;4920882;29;20192;-78
2021/12/04 07:31:39;;;;;;;1.50;1.27;;;;;;;;;;4936656;29;20227;-77
2021/12/04 07:34:05;;;;;;;2.13;1.80;;;;;;;;;;4920903;29;20225;-78
2021/12/04 07:36:31;;;;;;;1.80;1.70;;;;;;;;;;4936613;29;20181;-79
2021/12/04 07:39:01;;;;;;;5.80;3.47;;;;;;;;;;4920511;28;20220;-78
2021/12/04 07:41:28;;;;;;;5.33;3.30;;;;;;;;;;4953534;29;20208;-78
2021/12/04 07:43:54;;;;;;;7.00;4.43;;;;;;;;;;4920917;29;20243;-78
2021/12/04 07:46:20;;;;;;;8.30;4.10;;;;;;;;;;4936421;29;20219;-77
2021/12/04 07:48:47;;;;;;;17.97;9.07;;;;;;;;;;4936268;29;20287;-77
2021/12/04 07:51:13;;;;;;;13.63;6.53;;;;;;;;;;4936420;29;20185;-78
2021/12/04 07:53:39;;;;;;;3.67;2.60;;;;;;;;;;4935932;29;20188;-78
2021/12/04 07:56:07;;;;;;;3.00;2.30;;;;;;;;;;4920187;29;20196;-78
2021/12/04 07:58:33;;;;;;;6.20;3.63;;;;;;;;;;4920096;28;20216;-79
2021/12/04 08:00:59;;;;;;;7.73;4.27;;;;;;;;;;4919966;28;20212;-78
2021/12/04 08:03:25;;;;;;;8.97;4.57;;;;;;;;;;4935711;29;20170;-78
2021/12/04 08:05:52;;;;;;;4.63;2.50;;;;;;;;;;4920193;29;20272;-78
2021/12/04 08:08:18;;;;;;;6.30;3.20;;;;;;;;;;4935620;29;20202;-78
2021/12/04 08:10:44;;;;;;;6.30;3.50;;;;;;;;;;4935500;29;20204;-78
2021/12/04 08:13:10;;;;;;;2.97;2.50;;;;;;;;;;4935535;29;20718;-78
2021/12/04 08:15:37;;;;;;;3.07;1.60;;;;;;;;;;4953148;29;20208;-77
2021/12/04 08:18:03;;;;;;;3.00;2.23;;;;;;;;;;4935551;29;20292;-77
2021/12/04 08:20:29;;;;;;;4.40;2.37;;;;;;;;;;4935405;29;20204;-78
2021/12/04 08:22:56;;;;;;;2.80;1.90;;;;;;;;;;4935276;29;20184;-78
2021/12/04 08:25:22;;;;;;;2.07;1.50;;;;;;;;;;4935178;29;20595;-78
2021/12/04 08:27:49;;;;;;;1.50;1.40;;;;;;;;;;4934434;29;20197;-78
2021/12/04 08:30:17;;;;;;;1.97;1.70;;;;;;;;;;4934240;29;20182;-77
2021/12/04 08:32:44;;;;;;;2.73;2.10;;;;;;;;;;4919962;29;20177;-76
2021/12/04 08:35:11;;;;;;;2.07;1.40;;;;;;;;;;4934807;29;20181;-76
2021/12/04 08:37:37;;;;;;;2.23;2.03;;;;;;;;;;4919312;29;20725;-77
2021/12/04 08:40:09;;;;;;;1.77;1.40;;;;;;;;;;4935489;29;20204;-78
2021/12/04 08:42:35;;;;;;;2.13;1.80;;;;;;;;;;4920486;28;20632;-78
2021/12/04 08:45:01;;;;;;;3.10;1.93;;;;;;;;;;4935269;29;20805;-76
2021/12/04 08:47:27;;;;;;;3.13;1.90;;;;;;;;;;4918881;29;20231;-76
2021/12/04 08:49:53;;;;;;;2.60;1.90;;;;;;;;;;4918691;29;20637;-76
2021/12/04 08:52:19;;;;;;;2.53;2.33;;;;;;;;;;4918568;29;20189;-76
2021/12/04 08:54:46;;;;;;;5.80;2.03;;;;;;;;;;4934425;29;20189;-76
2021/12/04 08:57:12;;;;;;;2.33;1.83;;;;;;;;;;4918839;28;20236;-75
2021/12/04 08:59:38;;;;;;;6.70;2.37;;;;;;;;;;4934366;29;20568;-76
2021/12/04 09:02:04;;;;;;;1.70;1.40;;;;;;;;;;4934158;29;20231;-75
2021/12/04 09:04:31;;;;;;;2.90;1.80;;;;;;;;;;4918581;28;20185;-75
2021/12/04 09:06:58;;;;;;;1.97;1.43;;;;;;;;;;4934014;29;20705;-75
2021/12/04 09:09:24;;;;;;;2.63;1.50;;;;;;;;;;4918404;29;20186;-74
2021/12/04 09:11:52;;;;;;;2.83;1.60;;;;;;;;;;4934111;29;20177;-75
2021/12/04 09:14:20;;;;;;;1.23;1.13;;;;;;;;;;4918432;28;20560;-75
2021/12/04 09:16:46;;;;;;;1.70;1.40;;;;;;;;;;4918350;28;20187;-75
2021/12/04 09:19:12;;;;;;;2.37;1.60;;;;;;;;;;4934297;29;20184;-75
2021/12/04 09:21:39;;;;;;;1.70;1.50;;;;;;;;;;4934144;29;20486;-76
2021/12/04 09:24:10;;;;;;;2.77;1.53;;;;;;;;;;4934096;29;20187;-76
2021/12/04 09:27:33;;;;;;;2.83;1.53;;;;;;;;;;4919387;28;20177;-76
2021/12/04 09:59:10;;;;;;;3.03;1.70;;;;;;;;;;4940289;29;20664;-76
2021/12/04 10:15:28;;;;;;;3.33;1.80;;;;;;;;;;4954971;29;20202;-78
2021/12/04 10:33:54;;;;;;;1.50;1.30;;;;;;;;;;4940585;29;20676;-80
2021/12/04 10:36:28;;;;;;;1.40;1.30;;;;;;;;;;4937401;29;20181;-81
2021/12/04 10:38:55;;;;;;;1.40;1.23;;;;;;;;;;4937587;29;20782;-80
2021/12/04 10:41:29;;;;;;;2.63;2.03;;;;;;;;;;4937624;29;20606;-79
2021/12/04 10:43:55;;;;;;;9.77;6.10;;;;;;;;;;4937887;28;20224;-80
2021/12/04 10:46:22;;;;;;;2.00;1.80;;;;;;;;;;4938024;29;20184;-83
2021/12/04 10:48:55;;;;;;;1.60;1.50;;;;;;;;;;4923555;28;20212;-80
2021/12/04 10:51:36;;;;;;;1.50;1.40;;;;;;;;;;4937267;29;20184;-80
2021/12/04 10:54:27;;;;;;;1.77;1.40;;;;;;;;;;4924112;28;20194;-80
2021/12/04 11:02:15;;;;;;;1.93;1.50;;;;;;;;;;4937337;28;20247;-76
2021/12/04 11:04:55;;;;;;;1.60;1.50;;;;;;;;;;4923676;28;20223;-76
2021/12/04 11:42:47;;;;;;;1.83;1.40;;;;;;;;;;4952438;29;20265;-76
2021/12/04 11:45:21;;;;;;;1.80;1.60;;;;;;;;;;4935668;29;20184;-76
2021/12/04 11:47:51;;;;;;;1.30;1.20;;;;;;;;;;4920727;28;20220;-77
2021/12/04 11:50:27;;;;;;;1.60;1.50;;;;;;;;;;4935426;29;20176;-76
2021/12/04 11:52:55;;;;;;;1.83;1.50;;;;;;;;;;4935628;29;20206;-79
2021/12/04 11:55:22;;;;;;;1.50;1.40;;;;;;;;;;4935653;29;20181;-78
2021/12/04 11:57:49;;;;;;;1.60;1.50;;;;;;;;;;4934685;29;20261;-81
2021/12/04 12:00:31;;;;;;;11.13;3.27;;;;;;;;;;4919588;29;20592;-76
2021/12/04 12:03:17;;;;;;;5.13;2.13;;;;;;;;;;4935137;29;20174;-77
2021/12/04 12:05:50;;;;;;;9.37;2.17;;;;;;;;;;4934953;29;20636;-77
2021/12/04 12:08:35;;;;;;;4.20;1.83;;;;;;;;;;4935290;29;20201;-77
2021/12/04 12:11:05;;;;;;;4.80;2.07;;;;;;;;;;4935588;29;20191;-77
2021/12/04 12:13:34;;;;;;;6.17;1.73;;;;;;;;;;4935436;29;20238;-78
2021/12/04 12:16:03;;;;;;;5.27;1.80;;;;;;;;;;4935835;29;20305;-76
2021/12/04 12:18:29;;;;;;;7.77;2.23;;;;;;;;;;4920208;28;20208;-77
2021/12/04 12:20:59;;;;;;;4.00;2.27;;;;;;;;;;4920297;29;20255;-77
2021/12/04 12:23:30;;;;;;;13.60;9.00;;;;;;;;;;4935795;29;20229;-77
2021/12/04 12:26:06;;;;;;;10.43;5.03;;;;;;;;;;4935819;29;20177;-77
2021/12/04 12:34:27;;;;;;;9.70;3.00;;;;;;;;;;4938625;29;20227;-78
2021/12/04 12:36:53;;;;;;;1.53;1.40;;;;;;;;;;4921154;28;20647;-78
2021/12/04 12:39:19;;;;;;;1.40;1.30;;;;;;;;;;4936439;29;20212;-78
2021/12/04 12:41:48;;;;;;;2.83;2.30;;;;;;;;;;4934850;29;20251;-79
2021/12/04 12:44:14;;;;;;;10.23;7.63;;;;;;;;;;4935268;29;20180;-79
2021/12/04 12:47:02;;;;;;;6.00;4.53;;;;;;;;;;4934985;29;20600;-79
2021/12/04 12:49:45;;;;;;;6.60;4.73;;;;;;;;;;4919132;28;20203;-80
2021/12/04 12:52:15;;;;;;;4.97;3.70;;;;;;;;;;4934606;29;20222;-80
2021/12/04 12:54:46;;;;;;;49.17;25.83;;;;;;;;;;4934622;29;20184;-81
2021/12/04 12:57:15;;;;;;;21.17;11.70;;;;;;;;;;4934463;29;20211;-79
2021/12/04 13:14:13;;;;;;;2.77;2.43;;;;;;;;;;4937337;29;20198;-79
2021/12/04 13:16:42;;;;;;;5.00;4.10;;;;;;;;;;4934372;29;20186;-80
2021/12/04 13:19:12;;;;;;;2.00;1.80;;;;;;;;;;4918848;28;20191;-79
2021/12/04 13:21:39;;;;;;;3.40;2.00;;;;;;;;;;4934016;29;20296;-80
2021/12/04 13:24:06;;;;;;;2.37;2.13;;;;;;;;;;4934195;29;20228;-80
2021/12/04 13:26:35;;;;;;;2.00;1.80;;;;;;;;;;4934083;29;20178;-80
2021/12/04 13:29:03;;;;;;;2.60;2.40;;;;;;;;;;4934059;29;20230;-80
2021/12/04 13:31:29;;;;;;;2.90;2.60;;;;;;;;;;4933682;29;20180;-79
2021/12/04 13:33:56;;;;;;;2.73;2.50;;;;;;;;;;4918567;29;20186;-80
2021/12/04 13:36:24;;;;;;;2.57;1.90;;;;;;;;;;4918239;28;20185;-80
2021/12/04 13:38:58;;;;;;;2.07;1.80;;;;;;;;;;4933713;29;20270;-80
2021/12/04 13:41:25;;;;;;;2.30;1.80;;;;;;;;;;4917944;28;20216;-81
2021/12/04 13:43:52;;;;;;;2.47;1.80;;;;;;;;;;4919180;29;20194;-80
2021/12/04 13:46:18;;;;;;;1.97;1.80;;;;;;;;;;4934065;29;20201;-80
2021/12/04 13:48:44;;;;;;;1.97;1.77;;;;;;;;;;4933829;29;20197;-80
2021/12/04 13:51:11;;;;;;;2.60;2.10;;;;;;;;;;4933711;29;20178;-80
2021/12/04 13:53:39;;;;;;;1.77;1.63;;;;;;;;;;4917968;29;20185;-80
2021/12/04 13:56:11;;;;;;;2.20;2.00;;;;;;;;;;4918065;28;20189;-81
2021/12/04 13:58:48;;;;;;;2.10;1.90;;;;;;;;;;4933782;29;20212;-80
2021/12/04 14:01:14;;;;;;;2.50;2.20;;;;;;;;;;4933555;29;20220;-80
2021/12/04 14:03:40;;;;;;;2.70;1.93;;;;;;;;;;4917987;29;20178;-80
2021/12/04 14:06:11;;;;;;;2.30;2.10;;;;;;;;;;4917898;28;20269;-79
2021/12/04 14:08:37;;;;;;;2.70;2.10;;;;;;;;;;4933439;28;20202;-80
2021/12/04 14:11:03;;;;;;;2.37;1.87;;;;;;;;;;4917725;29;20197;-80
2021/12/04 14:13:29;;;;;;;2.27;2.00;;;;;;;;;;4933635;29;20243;-80
2021/12/04 14:15:56;;;;;;;2.63;2.33;;;;;;;;;;4933687;29;20186;-79
2021/12/04 14:18:23;;;;;;;2.67;2.13;;;;;;;;;;4933691;29;20202;-79
2021/12/04 14:20:52;;;;;;;2.23;2.00;;;;;;;;;;4918832;29;20212;-80
2021/12/04 14:23:18;;;;;;;3.17;2.23;;;;;;;;;;4936681;29;20191;-79
2021/12/04 14:25:45;;;;;;;3.23;2.33;;;;;;;;;;4936853;29;20260;-79
2021/12/04 14:28:15;;;;;;;2.97;2.23;;;;;;;;;;4936814;29;20201;-80
2021/12/04 14:30:44;;;;;;;2.67;2.20;;;;;;;;;;4920989;28;20181;-80
2021/12/04 14:33:12;;;;;;;2.30;2.10;;;;;;;;;;4936607;29;20209;-80
2021/12/04 14:35:40;;;;;;;7.40;5.50;;;;;;;;;;4938326;29;20181;-78
2021/12/04 14:38:08;;;;;;;15.83;12.10;;;;;;;;;;4945317;29;20642;-80
2021/12/04 14:40:36;;;;;;;5.03;3.43;;;;;;;;;;4928352;28;20181;-77
2021/12/04 14:43:04;;;;;;;2.90;2.27;;;;;;;;;;4930598;28;20188;-80
2021/12/04 14:45:33;;;;;;;24.03;16.50;;;;;;;;;;4936731;29;20264;-80
2021/12/04 14:48:33;;;;;;;13.30;9.90;;;;;;;;;;4936605;29;20288;-79
2021/12/04 14:51:05;;;;;;;4.00;3.30;;;;;;;;;;4948215;29;20200;-79
2021/12/04 14:53:33;;;;;;;2.60;2.33;;;;;;;;;;4948011;29;20178;-81
2021/12/04 14:55:59;;;;;;;3.97;3.07;;;;;;;;;;4929685;28;20234;-80
2021/12/04 14:58:26;;;;;;;3.10;2.40;;;;;;;;;;4942679;29;20204;-80
2021/12/04 15:00:54;;;;;;;2.47;2.27;;;;;;;;;;4920605;28;20236;-80
2021/12/04 15:03:28;;;;;;;2.57;2.23;;;;;;;;;;4936472;29;20182;-79
2021/12/04 15:05:57;;;;;;;2.67;2.20;;;;;;;;;;4936249;29;20184;-79
2021/12/04 15:08:25;;;;;;;2.23;1.90;;;;;;;;;;4936315;29;20200;-80
2021/12/04 15:10:59;;;;;;;2.00;1.60;;;;;;;;;;4920334;28;20189;-79
2021/12/04 15:13:26;;;;;;;2.73;1.77;;;;;;;;;;4935990;29;20705;-79
2021/12/04 15:15:53;;;;;;;3.40;1.90;;;;;;;;;;4935829;29;20558;-80
2021/12/04 15:18:21;;;;;;;2.90;2.40;;;;;;;;;;4920189;29;20205;-79
2021/12/04 15:20:59;;;;;;;2.40;2.20;;;;;;;;;;4935613;29;20241;-80
2021/12/04 15:23:27;;;;;;;2.93;2.20;;;;;;;;;;4935849;29;20249;-80
2021/12/04 15:25:56;;;;;;;3.17;1.80;;;;;;;;;;4935959;29;20185;-79
2021/12/04 15:28:23;;;;;;;2.77;2.30;;;;;;;;;;4935910;29;20197;-80
2021/12/04 15:30:51;;;;;;;35.90;19.50;;;;;;;;;;4935264;29;20242;-80
2021/12/04 15:33:37;;;;;;;15.20;8.90;;;;;;;;;;4919979;29;20199;-80
2021/12/04 15:36:04;;;;;;;8.33;7.63;;;;;;;;;;4935817;29;20199;-77
2021/12/04 15:38:38;;;;;;;4.37;3.97;;;;;;;;;;4919911;28;20707;-78
2021/12/04 15:47:03;;;;;;;4.63;3.70;;;;;;;;;;4953191;29;20177;-79
2021/12/04 15:49:53;;;;;;;3.03;2.20;;;;;;;;;;4952525;29;20662;-78
2021/12/04 15:55:10;;;;;;;5.40;2.40;;;;;;;;;;4938745;29;20227;-78
2021/12/04 15:57:36;;;;;;;3.25;2.60;;;;;;;;;;4935787;29;20324;-78
2021/12/04 16:00:08;;;;;;;2.80;2.30;;;;;;;;;;4919846;29;20188;-77
2021/12/04 16:02:38;;;;;;;6.20;4.00;;;;;;;;;;4934691;29;20439;-78
2021/12/04 16:05:06;;;;;;;4.80;3.40;;;;;;;;;;4935613;29;20246;-77
2021/12/04 16:07:32;;;;;;;3.23;2.93;;;;;;;;;;4920272;28;20284;-78
2021/12/04 16:10:07;;;;;;;3.53;2.83;;;;;;;;;;4919758;28;20227;-78
2021/12/04 16:12:33;;;;;;;7.63;6.93;;;;;;;;;;4935488;29;20189;-79
2021/12/04 16:14:59;;;;;;;3.38;3.08;;;;;;;;;;4918921;28;20467;-79
2021/12/04 16:17:25;;;;;;;1.93;1.60;;;;;;;;;;4919537;29;20248;-79
2021/12/04 16:20:03;;;;;;;5.73;5.23;;;;;;;;;;4919905;28;20219;-80
2021/12/04 16:22:35;;;;;;;2.00;1.43;;;;;;;;;;4922331;28;20219;-79
2021/12/04 16:25:04;;;;;;;3.67;2.20;;;;;;;;;;4921046;28;20184;-79
2021/12/04 16:27:33;;;;;;;2.60;2.33;;;;;;;;;;4936582;29;20730;-79
2021/12/04 16:30:12;;;;;;;2.77;2.43;;;;;;;;;;4920467;28;20189;-78
2021/12/04 16:32:56;;;;;;;3.43;2.90;;;;;;;;;;4921718;28;20190;-79
2021/12/04 16:38:01;;;;;;;3.23;2.93;;;;;;;;;;4952494;29;20218;-79
2021/12/04 16:40:30;;;;;;;5.03;4.50;;;;;;;;;;4919274;29;20192;-79
2021/12/04 16:43:03;;;;;;;6.87;5.20;;;;;;;;;;4935068;29;20184;-79
2021/12/04 16:45:30;;;;;;;4.67;4.27;;;;;;;;;;4919879;28;20185;-79
2021/12/04 16:48:00;;;;;;;5.87;4.77;;;;;;;;;;4919424;29;20201;-79
2021/12/04 16:50:30;;;;;;;4.40;4.00;;;;;;;;;;4919811;28;20184;-80
2021/12/04 16:58:12;;;;;;;3.17;2.60;;;;;;;;;;4951965;29;20192;-79
2021/12/04 17:00:39;;;;;;;2.90;2.63;;;;;;;;;;4934289;29;20246;-76
2021/12/04 17:03:05;;;;;;;3.17;2.50;;;;;;;;;;4934415;29;20178;-76
2021/12/04 17:05:33;;;;;;;2.60;2.23;;;;;;;;;;4918502;29;20176;-76
2021/12/04 17:07:59;;;;;;;3.13;2.83;;;;;;;;;;4934004;29;20664;-76
2021/12/04 17:10:26;;;;;;;2.87;2.53;;;;;;;;;;4934191;29;20176;-77
2021/12/04 17:12:52;;;;;;;3.37;2.60;;;;;;;;;;4918502;28;20179;-76
2021/12/04 17:15:18;;;;;;;4.77;2.70;;;;;;;;;;4934042;29;20195;-76
2021/12/04 17:17:46;;;;;;;3.90;2.60;;;;;;;;;;4918376;29;20204;-76
2021/12/04 17:20:15;;;;;;;3.73;3.03;;;;;;;;;;4934101;29;20180;-77
2021/12/04 17:22:41;;;;;;;2.70;2.30;;;;;;;;;;4918303;28;20223;-76
2021/12/04 17:25:08;;;;;;;3.60;3.07;;;;;;;;;;4934016;29;20180;-76
2021/12/04 17:27:34;;;;;;;3.43;2.70;;;;;;;;;;4934063;29;20697;-76
2021/12/04 17:30:02;;;;;;;3.27;2.90;;;;;;;;;;4918365;28;20188;-76
2021/12/04 17:32:29;;;;;;;4.03;2.80;;;;;;;;;;4918418;28;20196;-76
2021/12/04 17:34:56;;;;;;;2.50;2.30;;;;;;;;;;4918305;28;20196;-76
2021/12/04 17:37:27;;;;;;;1.83;1.70;;;;;;;;;;4918370;28;20695;-78
2021/12/04 17:39:54;;;;;;;1.40;1.30;;;;;;;;;;4934434;29;20215;-76
2021/12/04 17:42:21;;;;;;;1.47;1.37;;;;;;;;;;4918037;28;20213;-77
2021/12/04 17:44:47;;;;;;;1.33;1.20;;;;;;;;;;4934324;29;20188;-77
2021/12/04 17:47:14;;;;;;;1.60;1.50;;;;;;;;;;4934520;29;20209;-77
2021/12/04 17:49:40;;;;;;;1.30;1.20;;;;;;;;;;4933965;29;20186;-77
2021/12/04 17:52:06;;;;;;;3.30;1.50;;;;;;;;;;4933653;29;20220;-77
2021/12/04 17:54:32;;;;;;;1.77;1.40;;;;;;;;;;4918104;28;20212;-77
2021/12/04 17:56:58;;;;;;;8.13;6.17;;;;;;;;;;4920503;28;20189;-77
2021/12/04 17:59:26;;;;;;;2.13;1.80;;;;;;;;;;4921363;29;20199;-76
2021/12/04 18:01:57;;;;;;;12.13;6.90;;;;;;;;;;4921266;28;20212;-77
2021/12/04 18:04:26;;;;;;;6.27;4.63;;;;;;;;;;4921460;29;20198;-80
2021/12/04 18:06:52;;;;;;;2.37;1.63;;;;;;;;;;4937719;29;20634;-77